sensor_id;sensor_type;location;lat;lon;timestamp;temperature;humidity
11399;DHT22;5755;48.116;11.608;2022-12-10T00:01:39;2.40;99.00
11399;DHT22;5755;48.116;11.608;2022-12-10T00:04:06;2.40;99.10
11399;DHT22;5755;48.116;11.608;2022-12-10T00:06:34;2.40;99.40
11399;DHT22;5755;48.116;11.608;2022-12-10T00:09:02;2.40;99.10
11399;DHT22;5755;48.116;11.608;2022-12-10T00:11:32;2.40;99.10
11399;DHT22;5755;48.116;11.608;2022-12-10T00:14:01;2.30;99.00
11399;DHT22;5755;48.116;11.608;2022-12-10T00:16:28;2.20;99.30
11399;DHT22;5755;48.116;11.608;2022-12-10T00:18:56;2.20;99.60
11399;DHT22;5755;48.116;11.608;2022-12-10T00:21:25;2.20;99.60
11399;DHT22;5755;48.116;11.608;2022-12-10T00:23:53;2.20;99.60
11399;DHT22;5755;48.116;11.608;2022-12-10T00:26:22;2.20;99.70
11399;DHT22;5755;48.116;11.608;2022-12-10T00:28:51;2.30;99.70
11399;DHT22;5755;48.116;11.608;2022-12-10T00:31:21;2.30;99.70
11399;DHT22;5755;48.116;11.608;2022-12-10T00:33:48;2.40;99.30
11399;DHT22;5755;48.116;11.608;2022-12-10T00:36:22;2.40;99.20
11399;DHT22;5755;48.116;11.608;2022-12-10T00:38:50;2.30;99.40
11399;DHT22;5755;48.116;11.608;2022-12-10T00:41:27;2.50;99.40
11399;DHT22;5755;48.116;11.608;2022-12-10T00:43:55;2.50;98.90
11399;DHT22;5755;48.116;11.608;2022-12-10T00:46:22;2.50;98.80
11399;DHT22;5755;48.116;11.608;2022-12-10T00:48:49;2.40;98.90
11399;DHT22;5755;48.116;11.608;2022-12-10T00:51:19;2.40;99.40
11399;DHT22;5755;48.116;11.608;2022-12-10T00:53:47;2.30;99.70
11399;DHT22;5755;48.116;11.608;2022-12-10T00:56:17;2.20;99.70
11399;DHT22;5755;48.116;11.608;2022-12-10T00:58:44;2.20;99.60
11399;DHT22;5755;48.116;11.608;2022-12-10T01:01:15;2.20;99.60
11399;DHT22;5755;48.116;11.608;2022-12-10T01:03:43;2.40;99.70
11399;DHT22;5755;48.116;11.608;2022-12-10T01:06:13;2.60;98.90
11399;DHT22;5755;48.116;11.608;2022-12-10T01:08:44;2.70;98.20
11399;DHT22;5755;48.116;11.608;2022-12-10T01:11:13;2.70;98.30
11399;DHT22;5755;48.116;11.608;2022-12-10T01:13:41;2.50;98.10
11399;DHT22;5755;48.116;11.608;2022-12-10T01:16:10;2.40;98.60
11399;DHT22;5755;48.116;11.608;2022-12-10T01:18:39;2.30;99.20
11399;DHT22;5755;48.116;11.608;2022-12-10T01:21:09;2.30;99.70
11399;DHT22;5755;48.116;11.608;2022-12-10T01:23:39;2.30;99.70
11399;DHT22;5755;48.116;11.608;2022-12-10T01:26:08;2.20;99.60
11399;DHT22;5755;48.116;11.608;2022-12-10T01:28:37;2.10;99.60
11399;DHT22;5755;48.116;11.608;2022-12-10T01:31:09;2.00;99.60
11399;DHT22;5755;48.116;11.608;2022-12-10T01:33:39;2.00;99.60
11399;DHT22;5755;48.116;11.608;2022-12-10T01:36:07;2.00;99.90
11399;DHT22;5755;48.116;11.608;2022-12-10T01:38:35;1.90;99.90
11399;DHT22;5755;48.116;11.608;2022-12-10T01:41:03;2.00;99.90
11399;DHT22;5755;48.116;11.608;2022-12-10T01:43:49;2.00;99.90
11399;DHT22;5755;48.116;11.608;2022-12-10T01:46:17;2.00;99.90
11399;DHT22;5755;48.116;11.608;2022-12-10T01:48:45;1.90;99.90
11399;DHT22;5755;48.116;11.608;2022-12-10T01:51:14;1.90;99.90
11399;DHT22;5755;48.116;11.608;2022-12-10T01:53:42;1.90;99.90
11399;DHT22;5755;48.116;11.608;2022-12-10T01:56:10;2.00;99.90
11399;DHT22;5755;48.116;11.608;2022-12-10T01:58:38;2.20;99.90
11399;DHT22;5755;48.116;11.608;2022-12-10T02:01:09;2.20;99.90
11399;DHT22;5755;48.116;11.608;2022-12-10T02:03:48;2.10;99.90
11399;DHT22;5755;48.116;11.608;2022-12-10T02:06:27;2.00;99.90
11399;DHT22;5755;48.116;11.608;2022-12-10T02:09:04;2.00;99.90
11399;DHT22;5755;48.116;11.608;2022-12-10T02:11:40;2.00;99.90
11399;DHT22;5755;48.116;11.608;2022-12-10T02:14:14;2.00;99.90
11399;DHT22;5755;48.116;11.608;2022-12-10T02:16:47;1.90;99.90
11399;DHT22;5755;48.116;11.608;2022-12-10T02:19:21;1.90;99.90
11399;DHT22;5755;48.116;11.608;2022-12-10T02:21:51;1.90;99.90
11399;DHT22;5755;48.116;11.608;2022-12-10T02:24:24;1.80;99.90
11399;DHT22;5755;48.116;11.608;2022-12-10T02:26:57;1.80;99.90
11399;DHT22;5755;48.116;11.608;2022-12-10T02:29:28;1.90;99.90
11399;DHT22;5755;48.116;11.608;2022-12-10T02:32:11;1.80;99.90
11399;DHT22;5755;48.116;11.608;2022-12-10T02:34:42;1.80;99.90
11399;DHT22;5755;48.116;11.608;2022-12-10T02:37:14;1.80;99.90
11399;DHT22;5755;48.116;11.608;2022-12-10T02:39:45;1.80;99.90
11399;DHT22;5755;48.116;11.608;2022-12-10T02:42:15;1.70;99.90
11399;DHT22;5755;48.116;11.608;2022-12-10T02:44:46;1.80;99.90
11399;DHT22;5755;48.116;11.608;2022-12-10T02:47:15;1.80;99.90
11399;DHT22;5755;48.116;11.608;2022-12-10T02:49:45;1.70;99.90
11399;DHT22;5755;48.116;11.608;2022-12-10T02:52:15;1.70;99.90
11399;DHT22;5755;48.116;11.608;2022-12-10T02:54:50;1.70;99.90
11399;DHT22;5755;48.116;11.608;2022-12-10T02:57:29;1.70;99.90
11399;DHT22;5755;48.116;11.608;2022-12-10T03:00:14;1.80;99.90
11399;DHT22;5755;48.116;11.608;2022-12-10T03:03:03;1.80;99.90
11399;DHT22;5755;48.116;11.608;2022-12-10T03:05:35;1.90;99.90
11399;DHT22;5755;48.116;11.608;2022-12-10T03:08:08;1.80;99.90
11399;DHT22;5755;48.116;11.608;2022-12-10T03:10:40;1.80;99.90
11399;DHT22;5755;48.116;11.608;2022-12-10T03:13:15;1.70;99.90
11399;DHT22;5755;48.116;11.608;2022-12-10T03:15:46;1.70;99.90
11399;DHT22;5755;48.116;11.608;2022-12-10T03:18:17;1.80;99.90
11399;DHT22;5755;48.116;11.608;2022-12-10T03:20:46;1.80;99.90
11399;DHT22;5755;48.116;11.608;2022-12-10T03:23:16;1.80;99.90
11399;DHT22;5755;48.116;11.608;2022-12-10T03:25:44;1.70;99.90
11399;DHT22;5755;48.116;11.608;2022-12-10T03:28:14;1.80;99.90
11399;DHT22;5755;48.116;11.608;2022-12-10T03:30:45;1.80;99.90
11399;DHT22;5755;48.116;11.608;2022-12-10T03:33:13;1.70;99.90
11399;DHT22;5755;48.116;11.608;2022-12-10T03:35:40;1.70;99.90
11399;DHT22;5755;48.116;11.608;2022-12-10T03:38:08;1.60;99.90
11399;DHT22;5755;48.116;11.608;2022-12-10T03:40:36;1.70;99.90
11399;DHT22;5755;48.116;11.608;2022-12-10T03:43:03;1.70;99.90
11399;DHT22;5755;48.116;11.608;2022-12-10T03:45:30;1.60;99.90
11399;DHT22;5755;48.116;11.608;2022-12-10T03:47:59;1.70;99.90
11399;DHT22;5755;48.116;11.608;2022-12-10T03:50:25;1.70;99.90
11399;DHT22;5755;48.116;11.608;2022-12-10T03:52:52;1.60;99.90
11399;DHT22;5755;48.116;11.608;2022-12-10T03:55:19;1.70;99.90
11399;DHT22;5755;48.116;11.608;2022-12-10T03:57:49;1.70;99.90
11399;DHT22;5755;48.116;11.608;2022-12-10T04:00:16;1.70;99.90
11399;DHT22;5755;48.116;11.608;2022-12-10T04:02:43;1.70;99.90
11399;DHT22;5755;48.116;11.608;2022-12-10T04:05:12;1.70;99.90
11399;DHT22;5755;48.116;11.608;2022-12-10T04:07:38;1.70;99.90
11399;DHT22;5755;48.116;11.608;2022-12-10T04:10:08;1.70;99.90
11399;DHT22;5755;48.116;11.608;2022-12-10T04:12:43;1.70;99.90
11399;DHT22;5755;48.116;11.608;2022-12-10T04:15:30;1.60;99.90
11399;DHT22;5755;48.116;11.608;2022-12-10T04:18:15;1.60;99.90
11399;DHT22;5755;48.116;11.608;2022-12-10T04:20:43;1.60;99.90
11399;DHT22;5755;48.116;11.608;2022-12-10T04:23:28;1.50;99.90
11399;DHT22;5755;48.116;11.608;2022-12-10T04:26:12;1.50;99.90
11399;DHT22;5755;48.116;11.608;2022-12-10T04:32:14;1.50;99.90
11399;DHT22;5755;48.116;11.608;2022-12-10T04:38:09;1.50;99.90
11399;DHT22;5755;48.116;11.608;2022-12-10T04:40:38;1.40;99.90
11399;DHT22;5755;48.116;11.608;2022-12-10T04:43:06;1.50;99.90
11399;DHT22;5755;48.116;11.608;2022-12-10T04:45:34;1.50;99.90
11399;DHT22;5755;48.116;11.608;2022-12-10T04:51:23;1.50;99.90
11399;DHT22;5755;48.116;11.608;2022-12-10T04:56:52;1.40;99.90
11399;DHT22;5755;48.116;11.608;2022-12-10T04:59:31;1.40;99.90
11399;DHT22;5755;48.116;11.608;2022-12-10T05:02:19;1.40;99.90
11399;DHT22;5755;48.116;11.608;2022-12-10T05:11:38;1.50;99.90
11399;DHT22;5755;48.116;11.608;2022-12-10T05:14:08;1.40;99.90
11399;DHT22;5755;48.116;11.608;2022-12-10T05:16:44;1.50;99.90
11399;DHT22;5755;48.116;11.608;2022-12-10T05:19:43;1.40;99.90
11399;DHT22;5755;48.116;11.608;2022-12-10T05:22:31;1.40;99.90
11399;DHT22;5755;48.116;11.608;2022-12-10T05:25:25;1.40;99.90
11399;DHT22;5755;48.116;11.608;2022-12-10T05:31:13;1.50;99.90
11399;DHT22;5755;48.116;11.608;2022-12-10T05:34:01;1.50;99.90
11399;DHT22;5755;48.116;11.608;2022-12-10T05:36:32;1.50;99.90
11399;DHT22;5755;48.116;11.608;2022-12-10T05:46:09;1.40;99.90
11399;DHT22;5755;48.116;11.608;2022-12-10T05:48:51;1.40;99.90
11399;DHT22;5755;48.116;11.608;2022-12-10T05:51:21;1.40;99.90
11399;DHT22;5755;48.116;11.608;2022-12-10T05:53:50;1.40;99.90
11399;DHT22;5755;48.116;11.608;2022-12-10T05:56:21;1.40;99.90
11399;DHT22;5755;48.116;11.608;2022-12-10T05:59:02;1.40;99.90
11399;DHT22;5755;48.116;11.608;2022-12-10T06:01:33;1.50;99.90
11399;DHT22;5755;48.116;11.608;2022-12-10T06:04:04;1.40;99.90
11399;DHT22;5755;48.116;11.608;2022-12-10T06:10:02;1.30;99.90
11399;DHT22;5755;48.116;11.608;2022-12-10T06:15:37;1.40;99.90
11399;DHT22;5755;48.116;11.608;2022-12-10T06:18:08;1.40;99.90
11399;DHT22;5755;48.116;11.608;2022-12-10T06:20:39;1.40;99.90
11399;DHT22;5755;48.116;11.608;2022-12-10T06:26:38;1.40;99.90
11399;DHT22;5755;48.116;11.608;2022-12-10T06:29:20;1.40;99.90
11399;DHT22;5755;48.116;11.608;2022-12-10T06:31:49;1.30;99.90
11399;DHT22;5755;48.116;11.608;2022-12-10T06:34:43;1.30;99.90
11399;DHT22;5755;48.116;11.608;2022-12-10T06:37:33;1.30;99.90
11399;DHT22;5755;48.116;11.608;2022-12-10T06:40:02;1.30;99.90
11399;DHT22;5755;48.116;11.608;2022-12-10T06:42:32;1.30;99.90
11399;DHT22;5755;48.116;11.608;2022-12-10T06:45:02;1.40;99.90
11399;DHT22;5755;48.116;11.608;2022-12-10T06:47:29;1.40;99.90
11399;DHT22;5755;48.116;11.608;2022-12-10T06:50:08;1.40;99.90
11399;DHT22;5755;48.116;11.608;2022-12-10T06:53:09;1.30;99.90
11399;DHT22;5755;48.116;11.608;2022-12-10T06:55:36;1.40;99.90
11399;DHT22;5755;48.116;11.608;2022-12-10T06:58:08;1.60;99.90
11399;DHT22;5755;48.116;11.608;2022-12-10T07:00:37;1.60;99.90
11399;DHT22;5755;48.116;11.608;2022-12-10T07:03:20;1.60;99.90
11399;DHT22;5755;48.116;11.608;2022-12-10T07:05:46;1.70;99.90
11399;DHT22;5755;48.116;11.608;2022-12-10T07:08:15;1.70;99.90
11399;DHT22;5755;48.116;11.608;2022-12-10T07:13:53;1.70;99.80
11399;DHT22;5755;48.116;11.608;2022-12-10T07:16:49;1.70;99.90
11399;DHT22;5755;48.116;11.608;2022-12-10T07:19:37;1.60;99.90
11399;DHT22;5755;48.116;11.608;2022-12-10T07:25:27;1.70;99.90
11399;DHT22;5755;48.116;11.608;2022-12-10T07:27:56;1.70;99.90
11399;DHT22;5755;48.116;11.608;2022-12-10T07:30:26;1.70;99.90
11399;DHT22;5755;48.116;11.608;2022-12-10T07:33:08;1.80;99.90
11399;DHT22;5755;48.116;11.608;2022-12-10T07:38:52;1.60;99.90
11399;DHT22;5755;48.116;11.608;2022-12-10T07:41:27;1.60;99.90
11399;DHT22;5755;48.116;11.608;2022-12-10T07:43:55;1.70;99.90
11399;DHT22;5755;48.116;11.608;2022-12-10T07:46:43;1.70;99.90
11399;DHT22;5755;48.116;11.608;2022-12-10T07:49:10;1.70;99.90
11399;DHT22;5755;48.116;11.608;2022-12-10T07:58:22;1.70;99.90
11399;DHT22;5755;48.116;11.608;2022-12-10T08:01:14;1.80;99.70
11399;DHT22;5755;48.116;11.608;2022-12-10T08:07:20;1.70;99.50
11399;DHT22;5755;48.116;11.608;2022-12-10T08:09:50;1.70;99.60
11399;DHT22;5755;48.116;11.608;2022-12-10T08:12:20;1.60;99.90
11399;DHT22;5755;48.116;11.608;2022-12-10T08:14:57;1.60;99.50
11399;DHT22;5755;48.116;11.608;2022-12-10T08:20:50;1.60;99.80
11399;DHT22;5755;48.116;11.608;2022-12-10T08:23:32;1.80;99.80
11399;DHT22;5755;48.116;11.608;2022-12-10T08:26:03;2.00;99.20
11399;DHT22;5755;48.116;11.608;2022-12-10T08:28:44;1.90;98.80
11399;DHT22;5755;48.116;11.608;2022-12-10T08:31:14;1.90;98.90
11399;DHT22;5755;48.116;11.608;2022-12-10T08:40:20;1.90;99.10
11399;DHT22;5755;48.116;11.608;2022-12-10T08:43:02;1.90;99.30
11399;DHT22;5755;48.116;11.608;2022-12-10T08:45:57;2.00;98.90
11399;DHT22;5755;48.116;11.608;2022-12-10T08:51:35;2.20;98.70
11399;DHT22;5755;48.116;11.608;2022-12-10T08:54:02;2.40;98.20
11399;DHT22;5755;48.116;11.608;2022-12-10T08:56:32;2.60;97.50
11399;DHT22;5755;48.116;11.608;2022-12-10T08:58:59;2.70;97.20
11399;DHT22;5755;48.116;11.608;2022-12-10T09:01:32;2.50;97.20
11399;DHT22;5755;48.116;11.608;2022-12-10T09:03:59;2.30;97.40
11399;DHT22;5755;48.116;11.608;2022-12-10T09:06:27;2.10;97.50
11399;DHT22;5755;48.116;11.608;2022-12-10T09:08:57;2.10;98.00
11399;DHT22;5755;48.116;11.608;2022-12-10T09:11:26;2.10;98.20
11399;DHT22;5755;48.116;11.608;2022-12-10T09:13:54;2.10;98.30
11399;DHT22;5755;48.116;11.608;2022-12-10T09:16:27;2.20;98.00
11399;DHT22;5755;48.116;11.608;2022-12-10T09:18:54;2.20;97.60
11399;DHT22;5755;48.116;11.608;2022-12-10T09:21:22;2.20;97.10
11399;DHT22;5755;48.116;11.608;2022-12-10T09:23:49;2.20;97.50
11399;DHT22;5755;48.116;11.608;2022-12-10T09:26:18;2.20;97.20
11399;DHT22;5755;48.116;11.608;2022-12-10T09:28:50;2.00;98.00
11399;DHT22;5755;48.116;11.608;2022-12-10T09:31:19;2.00;98.20
11399;DHT22;5755;48.116;11.608;2022-12-10T09:33:47;2.10;98.00
11399;DHT22;5755;48.116;11.608;2022-12-10T09:36:15;2.10;98.20
11399;DHT22;5755;48.116;11.608;2022-12-10T09:38:43;2.40;97.20
11399;DHT22;5755;48.116;11.608;2022-12-10T09:41:29;2.40;97.20
11399;DHT22;5755;48.116;11.608;2022-12-10T09:44:00;2.30;97.60
11399;DHT22;5755;48.116;11.608;2022-12-10T09:46:46;2.10;97.50
11399;DHT22;5755;48.116;11.608;2022-12-10T09:49:21;2.10;97.70
11399;DHT22;5755;48.116;11.608;2022-12-10T09:51:50;2.10;98.10
11399;DHT22;5755;48.116;11.608;2022-12-10T09:54:24;2.00;98.60
11399;DHT22;5755;48.116;11.608;2022-12-10T09:56:55;2.10;98.90
11399;DHT22;5755;48.116;11.608;2022-12-10T09:59:26;2.00;99.00
11399;DHT22;5755;48.116;11.608;2022-12-10T10:02:09;2.10;98.70
11399;DHT22;5755;48.116;11.608;2022-12-10T10:04:37;2.00;98.30
11399;DHT22;5755;48.116;11.608;2022-12-10T10:07:05;2.10;98.60
11399;DHT22;5755;48.116;11.608;2022-12-10T10:09:36;2.10;98.60
11399;DHT22;5755;48.116;11.608;2022-12-10T10:12:11;2.10;98.60
11399;DHT22;5755;48.116;11.608;2022-12-10T10:14:44;2.10;98.40
11399;DHT22;5755;48.116;11.608;2022-12-10T10:17:23;2.10;98.50
11399;DHT22;5755;48.116;11.608;2022-12-10T10:19:53;2.20;98.60
11399;DHT22;5755;48.116;11.608;2022-12-10T10:22:26;2.10;98.40
11399;DHT22;5755;48.116;11.608;2022-12-10T10:24:56;2.10;98.50
11399;DHT22;5755;48.116;11.608;2022-12-10T10:27:28;2.20;98.50
11399;DHT22;5755;48.116;11.608;2022-12-10T10:29:57;2.20;98.50
11399;DHT22;5755;48.116;11.608;2022-12-10T10:32:26;2.10;98.00
11399;DHT22;5755;48.116;11.608;2022-12-10T10:34:58;2.10;98.20
11399;DHT22;5755;48.116;11.608;2022-12-10T10:37:28;2.20;98.70
11399;DHT22;5755;48.116;11.608;2022-12-10T10:39:56;2.50;98.40
11399;DHT22;5755;48.116;11.608;2022-12-10T10:42:34;2.50;97.90
11399;DHT22;5755;48.116;11.608;2022-12-10T10:45:03;2.50;97.20
11399;DHT22;5755;48.116;11.608;2022-12-10T10:47:32;2.40;97.50
11399;DHT22;5755;48.116;11.608;2022-12-10T10:50:02;2.20;97.80
11399;DHT22;5755;48.116;11.608;2022-12-10T10:52:37;2.20;98.20
11399;DHT22;5755;48.116;11.608;2022-12-10T10:55:05;2.10;98.50
11399;DHT22;5755;48.116;11.608;2022-12-10T10:57:39;2.10;98.60
11399;DHT22;5755;48.116;11.608;2022-12-10T11:00:18;2.10;98.90
11399;DHT22;5755;48.116;11.608;2022-12-10T11:02:48;2.20;98.80
11399;DHT22;5755;48.116;11.608;2022-12-10T11:05:19;2.10;98.60
11399;DHT22;5755;48.116;11.608;2022-12-10T11:07:47;2.20;99.10
11399;DHT22;5755;48.116;11.608;2022-12-10T11:10:19;2.40;99.00
11399;DHT22;5755;48.116;11.608;2022-12-10T11:12:56;2.40;98.50
11399;DHT22;5755;48.116;11.608;2022-12-10T11:15:32;2.30;98.50
11399;DHT22;5755;48.116;11.608;2022-12-10T11:18:00;2.30;98.40
11399;DHT22;5755;48.116;11.608;2022-12-10T11:20:30;2.20;98.90
11399;DHT22;5755;48.116;11.608;2022-12-10T11:22:59;2.20;99.10
11399;DHT22;5755;48.116;11.608;2022-12-10T11:25:38;2.20;99.20
11399;DHT22;5755;48.116;11.608;2022-12-10T11:28:19;2.40;99.00
11399;DHT22;5755;48.116;11.608;2022-12-10T11:30:58;2.40;98.70
11399;DHT22;5755;48.116;11.608;2022-12-10T11:33:34;2.50;98.40
11399;DHT22;5755;48.116;11.608;2022-12-10T11:36:23;2.30;98.10
11399;DHT22;5755;48.116;11.608;2022-12-10T11:39:02;2.40;98.20
11399;DHT22;5755;48.116;11.608;2022-12-10T11:41:37;2.40;98.50
11399;DHT22;5755;48.116;11.608;2022-12-10T11:44:16;2.40;98.40
11399;DHT22;5755;48.116;11.608;2022-12-10T11:47:01;2.40;98.60
11399;DHT22;5755;48.116;11.608;2022-12-10T11:49:38;2.50;98.20
11399;DHT22;5755;48.116;11.608;2022-12-10T11:52:12;2.40;98.40
11399;DHT22;5755;48.116;11.608;2022-12-10T11:55:00;2.20;98.30
11399;DHT22;5755;48.116;11.608;2022-12-10T11:57:36;2.20;98.80
11399;DHT22;5755;48.116;11.608;2022-12-10T12:00:19;2.20;98.90
11399;DHT22;5755;48.116;11.608;2022-12-10T12:03:00;2.10;98.90
11399;DHT22;5755;48.116;11.608;2022-12-10T12:05:53;2.00;98.90
11399;DHT22;5755;48.116;11.608;2022-12-10T12:08:36;1.90;99.40
11399;DHT22;5755;48.116;11.608;2022-12-10T12:11:23;2.00;99.60
11399;DHT22;5755;48.116;11.608;2022-12-10T12:14:00;2.10;99.10
11399;DHT22;5755;48.116;11.608;2022-12-10T12:16:33;2.20;99.00
11399;DHT22;5755;48.116;11.608;2022-12-10T12:19:04;2.20;99.20
11399;DHT22;5755;48.116;11.608;2022-12-10T12:22:00;2.20;98.90
11399;DHT22;5755;48.116;11.608;2022-12-10T12:24:34;2.20;99.00
11399;DHT22;5755;48.116;11.608;2022-12-10T12:27:08;2.10;98.80
11399;DHT22;5755;48.116;11.608;2022-12-10T12:29:42;2.10;99.00
11399;DHT22;5755;48.116;11.608;2022-12-10T12:32:25;2.10;99.50
11399;DHT22;5755;48.116;11.608;2022-12-10T12:34:58;2.20;99.30
11399;DHT22;5755;48.116;11.608;2022-12-10T12:37:32;2.20;98.90
11399;DHT22;5755;48.116;11.608;2022-12-10T12:40:05;2.20;98.90
11399;DHT22;5755;48.116;11.608;2022-12-10T12:42:40;2.10;98.90
11399;DHT22;5755;48.116;11.608;2022-12-10T12:45:13;2.10;98.90
11399;DHT22;5755;48.116;11.608;2022-12-10T12:47:47;2.00;98.70
11399;DHT22;5755;48.116;11.608;2022-12-10T12:50:24;1.90;98.90
11399;DHT22;5755;48.116;11.608;2022-12-10T12:52:54;1.90;99.60
11399;DHT22;5755;48.116;11.608;2022-12-10T12:55:29;1.90;99.60
11399;DHT22;5755;48.116;11.608;2022-12-10T12:58:17;2.00;99.60
11399;DHT22;5755;48.116;11.608;2022-12-10T13:00:53;2.00;99.60
11399;DHT22;5755;48.116;11.608;2022-12-10T13:03:32;2.00;99.00
11399;DHT22;5755;48.116;11.608;2022-12-10T13:06:13;2.10;98.90
11399;DHT22;5755;48.116;11.608;2022-12-10T13:08:44;2.30;98.70
11399;DHT22;5755;48.116;11.608;2022-12-10T13:11:24;2.30;98.60
11399;DHT22;5755;48.116;11.608;2022-12-10T13:14:29;2.20;98.60
11399;DHT22;5755;48.116;11.608;2022-12-10T13:17:26;2.00;98.30
11399;DHT22;5755;48.116;11.608;2022-12-10T13:20:28;1.90;98.80
11399;DHT22;5755;48.116;11.608;2022-12-10T13:22:57;1.80;99.00
11399;DHT22;5755;48.116;11.608;2022-12-10T13:28:31;1.90;99.60
11399;DHT22;5755;48.116;11.608;2022-12-10T13:31:17;2.00;99.60
11399;DHT22;5755;48.116;11.608;2022-12-10T13:33:48;2.10;98.80
11399;DHT22;5755;48.116;11.608;2022-12-10T13:36:23;2.10;98.80
11399;DHT22;5755;48.116;11.608;2022-12-10T13:39:11;2.10;99.20
11399;DHT22;5755;48.116;11.608;2022-12-10T13:41:40;2.10;99.60
11399;DHT22;5755;48.116;11.608;2022-12-10T13:44:35;2.10;99.60
11399;DHT22;5755;48.116;11.608;2022-12-10T13:47:21;2.10;98.80
11399;DHT22;5755;48.116;11.608;2022-12-10T13:49:52;2.10;99.10
11399;DHT22;5755;48.116;11.608;2022-12-10T13:52:25;2.10;99.30
11399;DHT22;5755;48.116;11.608;2022-12-10T13:55:16;2.20;99.10
11399;DHT22;5755;48.116;11.608;2022-12-10T13:57:56;2.10;98.90
11399;DHT22;5755;48.116;11.608;2022-12-10T14:00:33;2.10;99.10
11399;DHT22;5755;48.116;11.608;2022-12-10T14:03:18;2.10;99.20
11399;DHT22;5755;48.116;11.608;2022-12-10T14:06:00;2.00;99.60
11399;DHT22;5755;48.116;11.608;2022-12-10T14:08:32;2.00;99.90
11399;DHT22;5755;48.116;11.608;2022-12-10T14:11:01;2.00;99.60
11399;DHT22;5755;48.116;11.608;2022-12-10T14:13:33;2.00;99.60
11399;DHT22;5755;48.116;11.608;2022-12-10T14:16:02;2.00;99.80
11399;DHT22;5755;48.116;11.608;2022-12-10T14:18:32;2.10;99.60
11399;DHT22;5755;48.116;11.608;2022-12-10T14:21:02;2.20;99.60
11399;DHT22;5755;48.116;11.608;2022-12-10T14:23:43;2.20;99.50
11399;DHT22;5755;48.116;11.608;2022-12-10T14:26:13;2.20;99.70
11399;DHT22;5755;48.116;11.608;2022-12-10T14:28:45;2.10;99.60
11399;DHT22;5755;48.116;11.608;2022-12-10T14:31:16;2.00;99.60
11399;DHT22;5755;48.116;11.608;2022-12-10T14:33:44;2.00;99.60
11399;DHT22;5755;48.116;11.608;2022-12-10T14:36:16;1.80;99.60
11399;DHT22;5755;48.116;11.608;2022-12-10T14:38:47;1.80;99.60
11399;DHT22;5755;48.116;11.608;2022-12-10T14:41:18;1.80;99.60
11399;DHT22;5755;48.116;11.608;2022-12-10T14:43:47;1.80;99.60
11399;DHT22;5755;48.116;11.608;2022-12-10T14:46:17;1.90;99.60
11399;DHT22;5755;48.116;11.608;2022-12-10T14:48:48;1.80;99.60
11399;DHT22;5755;48.116;11.608;2022-12-10T14:51:18;1.90;99.60
11399;DHT22;5755;48.116;11.608;2022-12-10T14:53:48;1.80;99.60
11399;DHT22;5755;48.116;11.608;2022-12-10T14:56:21;1.70;99.50
11399;DHT22;5755;48.116;11.608;2022-12-10T14:58:54;1.70;99.50
11399;DHT22;5755;48.116;11.608;2022-12-10T15:01:28;1.80;99.60
11399;DHT22;5755;48.116;11.608;2022-12-10T15:03:57;1.70;99.50
11399;DHT22;5755;48.116;11.608;2022-12-10T15:06:25;1.80;99.60
11399;DHT22;5755;48.116;11.608;2022-12-10T15:08:57;1.90;99.60
11399;DHT22;5755;48.116;11.608;2022-12-10T15:11:26;1.90;99.60
11399;DHT22;5755;48.116;11.608;2022-12-10T15:13:57;1.90;99.60
11399;DHT22;5755;48.116;11.608;2022-12-10T15:16:30;1.90;99.30
11399;DHT22;5755;48.116;11.608;2022-12-10T15:19:31;1.80;99.40
11399;DHT22;5755;48.116;11.608;2022-12-10T15:21:59;1.80;99.60
11399;DHT22;5755;48.116;11.608;2022-12-10T15:24:36;1.80;99.60
11399;DHT22;5755;48.116;11.608;2022-12-10T15:27:14;1.80;99.60
11399;DHT22;5755;48.116;11.608;2022-12-10T15:29:44;1.80;99.60
11399;DHT22;5755;48.116;11.608;2022-12-10T15:32:13;1.90;99.60
11399;DHT22;5755;48.116;11.608;2022-12-10T15:34:47;2.00;99.40
11399;DHT22;5755;48.116;11.608;2022-12-10T15:37:18;1.80;99.20
11399;DHT22;5755;48.116;11.608;2022-12-10T15:39:52;1.80;99.60
11399;DHT22;5755;48.116;11.608;2022-12-10T15:42:36;1.90;99.60
11399;DHT22;5755;48.116;11.608;2022-12-10T15:45:15;1.80;99.60
11399;DHT22;5755;48.116;11.608;2022-12-10T15:47:42;1.90;99.60
11399;DHT22;5755;48.116;11.608;2022-12-10T15:50:10;1.90;99.10
11399;DHT22;5755;48.116;11.608;2022-12-10T15:52:50;1.90;99.20
11399;DHT22;5755;48.116;11.608;2022-12-10T15:55:19;1.90;99.30
11399;DHT22;5755;48.116;11.608;2022-12-10T15:57:45;2.00;99.40
11399;DHT22;5755;48.116;11.608;2022-12-10T16:00:17;1.90;99.10
11399;DHT22;5755;48.116;11.608;2022-12-10T16:02:58;1.90;99.10
11399;DHT22;5755;48.116;11.608;2022-12-10T16:05:29;1.80;99.20
11399;DHT22;5755;48.116;11.608;2022-12-10T16:08:00;1.80;99.60
11399;DHT22;5755;48.116;11.608;2022-12-10T16:10:29;1.80;99.60
11399;DHT22;5755;48.116;11.608;2022-12-10T16:12:59;1.80;99.60
11399;DHT22;5755;48.116;11.608;2022-12-10T16:15:35;1.70;98.90
11399;DHT22;5755;48.116;11.608;2022-12-10T16:18:04;1.70;99.10
11399;DHT22;5755;48.116;11.608;2022-12-10T16:20:38;1.70;98.80
11399;DHT22;5755;48.116;11.608;2022-12-10T16:23:08;1.70;98.90
11399;DHT22;5755;48.116;11.608;2022-12-10T16:25:38;1.60;98.80
11399;DHT22;5755;48.116;11.608;2022-12-10T16:28:10;1.70;98.60
11399;DHT22;5755;48.116;11.608;2022-12-10T16:30:40;1.60;98.30
11399;DHT22;5755;48.116;11.608;2022-12-10T16:33:08;1.60;98.50
11399;DHT22;5755;48.116;11.608;2022-12-10T16:35:35;1.50;98.00
11399;DHT22;5755;48.116;11.608;2022-12-10T16:38:02;1.30;98.30
11399;DHT22;5755;48.116;11.608;2022-12-10T16:40:29;1.40;98.30
11399;DHT22;5755;48.116;11.608;2022-12-10T16:42:58;1.50;98.30
11399;DHT22;5755;48.116;11.608;2022-12-10T16:45:27;1.40;97.70
11399;DHT22;5755;48.116;11.608;2022-12-10T16:47:55;1.30;98.10
11399;DHT22;5755;48.116;11.608;2022-12-10T16:50:22;1.10;98.30
11399;DHT22;5755;48.116;11.608;2022-12-10T16:52:50;1.10;98.20
11399;DHT22;5755;48.116;11.608;2022-12-10T16:55:18;1.20;98.20
11399;DHT22;5755;48.116;11.608;2022-12-10T16:57:46;1.30;98.00
11399;DHT22;5755;48.116;11.608;2022-12-10T17:00:17;1.20;97.60
11399;DHT22;5755;48.116;11.608;2022-12-10T17:02:45;1.20;97.90
11399;DHT22;5755;48.116;11.608;2022-12-10T17:05:15;1.30;98.00
11399;DHT22;5755;48.116;11.608;2022-12-10T17:07:42;1.20;98.00
11399;DHT22;5755;48.116;11.608;2022-12-10T17:10:11;1.30;97.90
11399;DHT22;5755;48.116;11.608;2022-12-10T17:12:39;1.20;98.00
11399;DHT22;5755;48.116;11.608;2022-12-10T17:15:10;1.10;98.20
11399;DHT22;5755;48.116;11.608;2022-12-10T17:17:38;1.20;98.80
11399;DHT22;5755;48.116;11.608;2022-12-10T17:20:15;1.10;98.60
11399;DHT22;5755;48.116;11.608;2022-12-10T17:22:43;1.20;98.80
11399;DHT22;5755;48.116;11.608;2022-12-10T17:25:10;1.10;98.70
11399;DHT22;5755;48.116;11.608;2022-12-10T17:27:37;1.10;99.00
11399;DHT22;5755;48.116;11.608;2022-12-10T17:30:06;1.10;99.20
11399;DHT22;5755;48.116;11.608;2022-12-10T17:32:33;1.00;98.60
11399;DHT22;5755;48.116;11.608;2022-12-10T17:35:01;1.00;98.80
11399;DHT22;5755;48.116;11.608;2022-12-10T17:37:31;1.20;98.80
11399;DHT22;5755;48.116;11.608;2022-12-10T17:39:58;1.20;98.10